createdAt,value
2023-03-27T00:00:38.012Z,9.5
2023-03-27T00:01:44.982Z,9.5
2023-03-27T00:02:51.968Z,9.5
2023-03-27T00:03:58.668Z,9.5
2023-03-27T00:05:05.397Z,9.5
2023-03-27T00:06:12.253Z,9.5
2023-03-27T00:07:21.590Z,9.5
2023-03-27T00:08:28.447Z,9.5
2023-03-27T00:09:35.341Z,9.6
2023-03-27T00:10:42.113Z,9.6
2023-03-27T00:11:48.937Z,9.6
2023-03-27T00:12:55.793Z,9.6
2023-03-27T00:14:02.676Z,9.6
2023-03-27T00:15:09.600Z,9.5
2023-03-27T00:16:21.734Z,9.5
2023-03-27T00:17:28.433Z,9.5
2023-03-27T00:18:35.272Z,9.4
2023-03-27T00:19:42.115Z,9.4
2023-03-27T00:20:48.890Z,9.4
2023-03-27T00:21:55.765Z,9.4
2023-03-27T00:23:02.695Z,9.4
2023-03-27T00:24:09.519Z,9.4
2023-03-27T00:25:16.317Z,9.4
2023-03-27T00:26:23.097Z,9.5
2023-03-27T00:27:29.999Z,9.5
2023-03-27T00:28:36.887Z,9.4
2023-03-27T00:29:43.664Z,9.4
2023-03-27T00:30:50.469Z,9.4
2023-03-27T00:31:57.256Z,9.4
2023-03-27T00:33:04.150Z,9.4
2023-03-27T00:34:11.020Z,9.5
2023-03-27T00:35:17.887Z,9.4
2023-03-27T00:36:24.668Z,9.4
2023-03-27T00:37:31.579Z,9.5
2023-03-27T00:38:38.229Z,9.5
2023-03-27T00:39:45.049Z,9.5
2023-03-27T00:40:51.793Z,9.4
2023-03-27T00:41:58.660Z,9.4
2023-03-27T00:43:05.404Z,9.4
2023-03-27T00:44:20.393Z,9.5
2023-03-27T00:45:30.000Z,9.5
2023-03-27T00:46:36.819Z,9.5
2023-03-27T00:47:43.700Z,9.5
2023-03-27T00:48:50.386Z,9.5
2023-03-27T00:49:57.228Z,9.5
2023-03-27T00:51:04.004Z,9.5
2023-03-27T00:52:10.909Z,9.5
2023-03-27T00:53:17.725Z,9.4
2023-03-27T00:54:24.465Z,9.4
2023-03-27T00:55:31.259Z,9.4
2023-03-27T00:56:38.151Z,9.4
2023-03-27T00:57:44.912Z,9.4
2023-03-27T00:58:54.608Z,9.4
2023-03-27T01:00:01.438Z,9.4
2023-03-27T01:01:08.525Z,9.4
2023-03-27T01:02:15.237Z,9.4
2023-03-27T01:03:22.135Z,9.5
2023-03-27T01:04:28.915Z,9.5
2023-03-27T01:05:35.747Z,9.5
2023-03-27T01:06:42.584Z,9.5
2023-03-27T01:07:59.924Z,9.5
2023-03-27T01:08:56.241Z,9.5
2023-03-27T01:10:03.094Z,9.5
2023-03-27T01:11:10.181Z,9.5
2023-03-27T01:12:22.032Z,9.5
2023-03-27T01:13:33.992Z,9.4
2023-03-27T01:14:50.912Z,9.4
2023-03-27T01:16:07.916Z,9.4
2023-03-27T01:17:19.699Z,9.4
2023-03-27T01:18:26.538Z,9.3
2023-03-27T01:19:33.437Z,9.4
2023-03-27T01:20:48.007Z,9.4
2023-03-27T01:22:02.697Z,9.4
2023-03-27T01:23:14.692Z,9.4
2023-03-27T01:24:24.249Z,9.4
2023-03-27T01:25:39.069Z,9.4
2023-03-27T01:26:55.951Z,9.4
2023-03-27T01:28:07.874Z,9.4
2023-03-27T01:29:19.833Z,9.4
2023-03-27T01:30:26.587Z,9.4
2023-03-27T01:31:36.351Z,9.3
2023-03-27T01:32:51.074Z,9.4
2023-03-27T01:34:05.582Z,9.3
2023-03-27T01:35:22.495Z,9.4
2023-03-27T01:36:37.167Z,9.4
2023-03-27T01:37:54.187Z,9.4
2023-03-27T01:39:11.122Z,9.3
2023-03-27T01:40:20.566Z,9.3
2023-03-27T01:41:27.363Z,9.3
2023-03-27T01:42:39.139Z,9.3
2023-03-27T01:43:54.012Z,9.2
2023-03-27T01:45:03.712Z,9.2
2023-03-27T01:46:20.594Z,9.2
2023-03-27T01:47:27.407Z,9.2
2023-03-27T01:48:41.800Z,9.2
2023-03-27T01:49:51.337Z,9.2
2023-03-27T01:51:06.024Z,9.3
2023-03-27T01:52:18.620Z,9.3
2023-03-27T01:53:25.492Z,9.3
2023-03-27T01:54:37.363Z,9.3
2023-03-27T01:55:46.977Z,9.3
2023-03-27T01:56:53.969Z,9.3
2023-03-27T01:58:03.398Z,9.4
2023-03-27T01:59:10.188Z,9.4
2023-03-27T02:00:16.997Z,9.4
2023-03-27T02:01:23.939Z,9.4
2023-03-27T02:02:36.278Z,9.4
2023-03-27T02:03:43.036Z,9.3
2023-03-27T02:04:49.884Z,9.3
2023-03-27T02:06:01.762Z,9.4
2023-03-27T02:07:11.344Z,9.4
2023-03-27T02:08:18.141Z,9.3
2023-03-27T02:09:27.770Z,9.3
2023-03-27T02:10:34.487Z,9.2
2023-03-27T02:11:41.283Z,9.3
2023-03-27T02:12:48.082Z,9.3
2023-03-27T02:14:02.688Z,9.3
2023-03-27T02:15:22.709Z,9.2
2023-03-27T02:16:19.005Z,9.2
2023-03-27T02:17:25.820Z,9.2
2023-03-27T02:18:32.580Z,9.2
2023-03-27T02:19:39.353Z,9.2
2023-03-27T02:20:49.055Z,9
2023-03-27T02:21:55.841Z,9
2023-03-27T02:23:02.829Z,9
2023-03-27T02:24:09.602Z,9
2023-03-27T02:25:16.398Z,8.9
2023-03-27T02:26:28.225Z,8.9
2023-03-27T02:27:35.069Z,8.8
2023-03-27T02:28:41.841Z,8.9
2023-03-27T02:29:58.879Z,8.9
2023-03-27T02:31:31.957Z,9
2023-03-27T02:32:20.673Z,9
2023-03-27T02:33:32.512Z,9
2023-03-27T02:34:49.426Z,9.1
2023-03-27T02:35:56.363Z,9
2023-03-27T02:37:08.193Z,9.1
2023-03-27T02:38:15.059Z,9.1
2023-03-27T02:39:32.002Z,9.1
2023-03-27T02:40:48.897Z,9.2
2023-03-27T02:41:58.781Z,9.2
2023-03-27T02:43:13.485Z,9.2
2023-03-27T02:44:30.314Z,9.2
2023-03-27T02:45:40.171Z,9.1
2023-03-27T02:46:54.771Z,9.1
2023-03-27T02:48:06.749Z,9.1
2023-03-27T02:49:13.445Z,9.1
2023-03-27T02:50:23.370Z,9.1
2023-03-27T02:51:35.268Z,9.1
2023-03-27T02:52:42.184Z,9.2
2023-03-27T02:53:49.005Z,9.1
2023-03-27T02:55:08.975Z,9.1
2023-03-27T02:56:20.818Z,9.1
2023-03-27T02:57:27.585Z,9.1
2023-03-27T02:58:34.415Z,9.1
2023-03-27T02:59:46.194Z,9.1
2023-03-27T03:00:53.112Z,9.2
2023-03-27T03:02:00.028Z,9.2
2023-03-27T03:03:07.095Z,9.2
2023-03-27T03:04:16.800Z,9.1
2023-03-27T03:05:28.623Z,9.2
2023-03-27T03:06:35.510Z,9.1
2023-03-27T03:07:42.300Z,9.1
2023-03-27T03:08:49.115Z,9.1
2023-03-27T03:09:55.875Z,9.1
2023-03-27T03:11:02.669Z,8.9
2023-03-27T03:12:12.373Z,9
2023-03-27T03:13:19.284Z,9
2023-03-27T03:14:26.183Z,9
2023-03-27T03:15:35.457Z,8.9
2023-03-27T03:16:42.304Z,9
2023-03-27T03:17:49.040Z,8.9
2023-03-27T03:18:55.973Z,9
2023-03-27T03:20:02.903Z,8.8
2023-03-27T03:21:10.092Z,8.9
2023-03-27T03:22:17.001Z,8.8
2023-03-27T03:23:23.820Z,8.9
2023-03-27T03:24:30.597Z,8.9
2023-03-27T03:25:37.546Z,8.8
2023-03-27T03:26:44.381Z,8.9
2023-03-27T03:27:51.208Z,8.9
2023-03-27T03:28:59.919Z,8.9
2023-03-27T03:30:04.878Z,8.8
2023-03-27T03:31:11.937Z,8.7
2023-03-27T03:32:18.769Z,8.8
2023-03-27T03:33:25.645Z,8.8
2023-03-27T03:34:32.460Z,8.8
2023-03-27T03:35:39.283Z,8.8
2023-03-27T03:36:46.004Z,8.8
2023-03-27T03:37:52.832Z,8.8
2023-03-27T03:38:59.539Z,8.7
2023-03-27T03:40:06.375Z,8.7
2023-03-27T03:41:13.452Z,8.8
2023-03-27T03:42:22.499Z,8.8
2023-03-27T03:43:27.147Z,8.8
2023-03-27T03:44:33.882Z,8.7
2023-03-27T03:45:40.778Z,8.8
2023-03-27T03:46:47.554Z,8.8
2023-03-27T03:47:54.325Z,8.7
2023-03-27T03:49:01.215Z,8.8
2023-03-27T03:50:08.064Z,8.7
2023-03-27T03:51:14.813Z,8.8
2023-03-27T03:52:21.564Z,8.8
2023-03-27T03:53:28.368Z,8.7
2023-03-27T03:54:35.242Z,8.8
2023-03-27T03:55:42.065Z,8.7
2023-03-27T03:56:48.911Z,8.8
2023-03-27T03:57:55.944Z,8.8
2023-03-27T03:59:02.859Z,8.8
2023-03-27T04:00:09.654Z,8.8
2023-03-27T04:01:16.804Z,8.7
2023-03-27T04:02:23.650Z,8.7
2023-03-27T04:03:33.269Z,8.6
2023-03-27T04:04:40.042Z,8.7
2023-03-27T04:05:46.823Z,8.6
2023-03-27T04:06:53.619Z,8.6
2023-03-27T04:08:00.460Z,8.6
2023-03-27T04:09:07.296Z,8.4
2023-03-27T04:10:14.086Z,8.4
2023-03-27T04:11:20.939Z,8.4
2023-03-27T04:12:27.682Z,8.5
2023-03-27T04:13:34.461Z,8.5
2023-03-27T04:14:41.246Z,8.6
2023-03-27T04:15:48.036Z,8.6
2023-03-27T04:16:54.808Z,8.5
2023-03-27T04:18:01.584Z,8.6
2023-03-27T04:19:08.329Z,8.6
2023-03-27T04:20:15.123Z,8.7
2023-03-27T04:21:21.949Z,8.6
2023-03-27T04:22:28.808Z,8.6
2023-03-27T04:23:35.552Z,8.6
2023-03-27T04:24:42.401Z,8.6
2023-03-27T04:25:49.226Z,8.5
2023-03-27T04:26:56.022Z,8.6
2023-03-27T04:28:02.789Z,8.6
2023-03-27T04:29:09.559Z,8.5
2023-03-27T04:30:16.357Z,8.4
2023-03-27T04:31:23.204Z,8.4
2023-03-27T04:32:30.031Z,8.4
2023-03-27T04:33:36.854Z,8.5
2023-03-27T04:34:43.620Z,8.5
2023-03-27T04:36:05.271Z,8.3
2023-03-27T04:36:57.414Z,8.3
2023-03-27T04:38:04.222Z,8.2
2023-03-27T04:39:11.038Z,8.3
2023-03-27T04:40:17.810Z,8.1
2023-03-27T04:41:24.712Z,8.2
2023-03-27T04:42:31.535Z,8
2023-03-27T04:43:38.407Z,8
2023-03-27T04:44:45.237Z,8.1
2023-03-27T04:45:52.016Z,8
2023-03-27T04:46:58.922Z,8
2023-03-27T04:48:05.857Z,8.1
2023-03-27T04:49:12.590Z,8.2
2023-03-27T04:50:22.330Z,8.1
2023-03-27T04:51:29.077Z,8.1
2023-03-27T04:52:35.862Z,8
2023-03-27T04:53:42.625Z,8
2023-03-27T04:54:49.501Z,8.1
2023-03-27T04:55:56.317Z,8.2
2023-03-27T04:57:07.779Z,8.3
2023-03-27T04:58:17.093Z,8.2
2023-03-27T04:59:23.966Z,8.3
2023-03-27T05:00:30.734Z,8.4
2023-03-27T05:01:37.607Z,8.4
2023-03-27T05:02:44.454Z,8.5
2023-03-27T05:03:51.336Z,8.4
2023-03-27T05:04:58.047Z,8.4
2023-03-27T05:06:04.870Z,8.4
2023-03-27T05:07:11.705Z,8.4
2023-03-27T05:08:18.518Z,8.4
2023-03-27T05:09:25.417Z,8.3
2023-03-27T05:10:32.193Z,8.3
2023-03-27T05:11:39.150Z,8.4
2023-03-27T05:12:45.930Z,8.5
2023-03-27T05:13:52.738Z,8.5
2023-03-27T05:14:59.582Z,8.4
2023-03-27T05:16:06.355Z,8.4
2023-03-27T05:17:13.192Z,8.3
2023-03-27T05:18:20.062Z,8.4
2023-03-27T05:19:26.990Z,8.4
2023-03-27T05:20:33.716Z,8.4
2023-03-27T05:21:40.538Z,8.5
2023-03-27T05:22:47.360Z,8.3
2023-03-27T05:23:56.892Z,8.3
2023-03-27T05:25:03.664Z,8.4
2023-03-27T05:26:10.575Z,8.4
2023-03-27T05:27:17.307Z,8.4
2023-03-27T05:28:24.110Z,8.4
2023-03-27T05:29:30.891Z,8.3
2023-03-27T05:30:37.705Z,8.4
2023-03-27T05:31:44.497Z,8.4
2023-03-27T05:32:51.321Z,8.4
2023-03-27T05:33:58.127Z,8.3
2023-03-27T05:35:04.921Z,8.4
2023-03-27T05:36:11.736Z,8.4
2023-03-27T05:37:21.518Z,8.4
2023-03-27T05:38:28.259Z,8.4
2023-03-27T05:39:35.011Z,8.3
2023-03-27T05:40:41.962Z,8.1
2023-03-27T05:41:48.786Z,8.2
2023-03-27T05:42:55.706Z,8.3
2023-03-27T05:44:02.479Z,8.2
2023-03-27T05:45:09.278Z,8.3
2023-03-27T05:46:20.741Z,8.2
2023-03-27T05:47:23.013Z,8
2023-03-27T05:48:29.766Z,8.1
2023-03-27T05:49:36.512Z,8.2
2023-03-27T05:50:43.316Z,8.1
2023-03-27T05:51:50.156Z,8.1
2023-03-27T05:52:56.970Z,8.2
2023-03-27T05:54:03.759Z,8.2
2023-03-27T05:55:10.534Z,8.3
2023-03-27T05:56:17.284Z,8.4
2023-03-27T05:57:24.129Z,8.4
2023-03-27T05:58:30.944Z,8.4
2023-03-27T05:59:37.764Z,8.4
2023-03-27T06:00:44.529Z,8.4
2023-03-27T06:01:51.379Z,8.3
2023-03-27T06:02:58.260Z,8.4
2023-03-27T06:04:05.148Z,8.3
2023-03-27T06:05:11.889Z,8
2023-03-27T06:06:18.717Z,8.1
2023-03-27T06:07:25.435Z,8.2
2023-03-27T06:08:32.334Z,8
2023-03-27T06:09:39.096Z,7.8
2023-03-27T06:10:45.880Z,7.8
2023-03-27T06:11:52.714Z,7.9
2023-03-27T06:12:59.521Z,8.1
2023-03-27T06:14:11.346Z,8
2023-03-27T06:15:18.108Z,7.8
2023-03-27T06:16:25.055Z,7.9
2023-03-27T06:17:31.957Z,8.1
2023-03-27T06:18:38.765Z,8.2
2023-03-27T06:19:45.533Z,8.3
2023-03-27T06:20:52.318Z,8.2
2023-03-27T06:21:59.113Z,8.1
2023-03-27T06:23:06.052Z,8.2
2023-03-27T06:24:12.845Z,8.3
2023-03-27T06:25:19.614Z,8.4
2023-03-27T06:26:26.401Z,8.5
2023-03-27T06:27:33.193Z,8.4
2023-03-27T06:28:40.021Z,8.4
2023-03-27T06:29:46.839Z,8.3
2023-03-27T06:30:53.709Z,8.4
2023-03-27T06:32:00.450Z,8.5
2023-03-27T06:33:07.387Z,8.6
2023-03-27T06:34:14.092Z,8.5
2023-03-27T06:35:21.026Z,8.6
2023-03-27T06:36:27.937Z,8.6
2023-03-27T06:37:34.611Z,8.2
2023-03-27T06:38:41.327Z,8.3
2023-03-27T06:39:48.164Z,8.3
2023-03-27T06:40:55.162Z,8.4
2023-03-27T06:42:01.844Z,8.4
2023-03-27T06:43:08.681Z,8.4
2023-03-27T06:44:15.422Z,8.4
2023-03-27T06:45:22.231Z,8.4
2023-03-27T06:46:43.022Z,8.4
2023-03-27T06:47:53.660Z,8.4
2023-03-27T06:48:52.395Z,8.4
2023-03-27T06:49:59.173Z,8.4
2023-03-27T06:51:05.927Z,8.4
2023-03-27T06:52:12.742Z,8.3
2023-03-27T06:54:26.369Z,8.4
2023-03-27T06:55:33.267Z,8.5
2023-03-27T06:56:40.197Z,8.6
2023-03-27T06:57:46.997Z,8.7
2023-03-27T06:58:53.822Z,8.7
2023-03-27T07:00:02.385Z,8.5
2023-03-27T07:01:07.702Z,8.4
2023-03-27T07:02:14.563Z,8.4
2023-03-27T07:03:21.402Z,8.4
2023-03-27T07:04:28.133Z,8.3
2023-03-27T07:05:34.941Z,8.5
2023-03-27T07:06:41.750Z,8.5
2023-03-27T07:07:49.374Z,8.6
2023-03-27T07:08:55.413Z,8.5
2023-03-27T07:10:02.197Z,8.4
2023-03-27T07:11:11.950Z,8.3
2023-03-27T07:12:16.174Z,8.2
2023-03-27T07:13:23.106Z,8.3
2023-03-27T07:14:29.875Z,8.3
2023-03-27T07:15:36.624Z,8.3
2023-03-27T07:16:43.525Z,8.3
2023-03-27T07:17:50.280Z,8.3
2023-03-27T07:19:02.071Z,8.3
2023-03-27T07:20:06.836Z,8.2
2023-03-27T07:21:13.842Z,8.2
2023-03-27T07:22:20.707Z,8.2
2023-03-27T07:23:27.489Z,8.2
2023-03-27T07:24:34.393Z,8.3
2023-03-27T07:25:41.089Z,8.3
2023-03-27T07:26:47.843Z,8.4
2023-03-27T07:27:54.657Z,8.5
2023-03-27T07:29:04.175Z,8.4
2023-03-27T07:30:10.995Z,8.4
2023-03-27T07:32:34.312Z,8.3
2023-03-27T07:33:31.574Z,8.4
2023-03-27T07:34:38.404Z,8.2
2023-03-27T07:35:45.111Z,8.3
2023-03-27T07:36:51.958Z,8.4
2023-03-27T07:37:58.789Z,8.4
2023-03-27T07:39:05.552Z,8.5
2023-03-27T07:40:12.484Z,8.5
2023-03-27T07:41:19.616Z,8.6
2023-03-27T07:42:26.658Z,8.6
2023-03-27T07:43:33.810Z,8.7
2023-03-27T07:44:40.604Z,8.7
2023-03-27T07:45:47.407Z,8.7
2023-03-27T07:46:54.182Z,8.5
2023-03-27T07:48:01.008Z,8.4
2023-03-27T07:49:10.580Z,8.3
2023-03-27T07:50:17.480Z,8.4
2023-03-27T07:51:24.370Z,8.3
2023-03-27T07:52:31.201Z,8.3
2023-03-27T07:53:37.994Z,8.4
2023-03-27T07:54:44.748Z,8.3
2023-03-27T07:55:51.577Z,8.4
2023-03-27T07:56:58.540Z,8.3
2023-03-27T07:58:05.270Z,8.1
2023-03-27T07:59:12.121Z,8.1
2023-03-27T08:00:18.926Z,8.2
2023-03-27T08:01:28.407Z,8.1
2023-03-27T08:02:35.322Z,7.8
2023-03-27T08:03:42.324Z,7.9
2023-03-27T08:04:49.081Z,8
2023-03-27T08:05:55.918Z,8.1
2023-03-27T08:07:02.585Z,8
2023-03-27T08:08:09.499Z,7.9
2023-03-27T08:09:16.516Z,7.9
2023-03-27T08:10:23.422Z,8
2023-03-27T08:11:31.109Z,7.5
2023-03-27T08:12:36.988Z,7.7
2023-03-27T08:13:43.779Z,7.8
2023-03-27T08:14:50.611Z,7.7
2023-03-27T08:15:57.619Z,7.7
2023-03-27T08:17:15.443Z,7.5
2023-03-27T08:18:16.186Z,7.5
2023-03-27T08:19:22.890Z,7.5
2023-03-27T08:20:29.673Z,7.5
2023-03-27T08:21:36.473Z,7.4
2023-03-27T08:22:43.311Z,7.2
2023-03-27T08:23:50.070Z,7.1
2023-03-27T08:24:56.840Z,7
2023-03-27T08:26:03.605Z,7
2023-03-27T08:27:10.439Z,7
2023-03-27T08:28:17.316Z,7
2023-03-27T08:29:24.085Z,7
2023-03-27T08:30:30.946Z,7
2023-03-27T08:31:37.721Z,6.8
2023-03-27T08:32:44.593Z,6.6
2023-03-27T08:33:51.397Z,6.4
2023-03-27T08:34:58.283Z,6
2023-03-27T08:36:05.086Z,6
2023-03-27T08:37:11.981Z,6
2023-03-27T08:38:25.918Z,5.9
2023-03-27T08:39:25.697Z,5.7
2023-03-27T08:40:32.444Z,5.6
2023-03-27T08:41:39.248Z,5.6
2023-03-27T08:42:56.214Z,5.8
2023-03-27T08:44:05.596Z,5.7
2023-03-27T08:45:17.452Z,5.3
2023-03-27T08:46:26.890Z,5.2
2023-03-27T08:47:41.852Z,5
2023-03-27T08:48:53.736Z,4.8
2023-03-27T08:50:00.592Z,4.8
2023-03-27T08:51:07.437Z,4.8
2023-03-27T08:52:17.230Z,4.6
2023-03-27T08:53:29.696Z,4.4
2023-03-27T08:54:41.682Z,4.5
2023-03-27T08:55:48.454Z,4.3
2023-03-27T08:56:55.215Z,4
2023-03-27T08:58:01.960Z,4.1
2023-03-27T08:59:08.755Z,3.9
2023-03-27T09:00:15.678Z,3.9
2023-03-27T09:01:25.417Z,3.8
2023-03-27T09:02:42.420Z,3.7
2023-03-27T09:03:54.256Z,3.5
2023-03-27T09:05:05.983Z,3.6
2023-03-27T09:06:12.927Z,3.5
2023-03-27T09:07:19.711Z,3.3
2023-03-27T09:08:31.579Z,3.5
2023-03-27T09:09:43.564Z,3.7
2023-03-27T09:10:55.484Z,3.6
2023-03-27T09:12:07.482Z,3.4
2023-03-27T09:13:22.074Z,3.3
2023-03-27T09:14:36.862Z,3
2023-03-27T09:15:43.633Z,3.1
2023-03-27T09:17:00.561Z,3.3
2023-03-27T09:18:12.454Z,2.7
2023-03-27T09:19:19.260Z,2.6
2023-03-27T09:20:36.192Z,2.6
2023-03-27T09:21:43.012Z,2.2
2023-03-27T09:22:54.852Z,2.3
2023-03-27T09:24:11.737Z,2.4
2023-03-27T09:25:18.559Z,2.6
2023-03-27T09:26:33.145Z,2.7
2023-03-27T09:27:39.983Z,2.8
2023-03-27T09:28:47.947Z,2.7
2023-03-27T09:30:04.796Z,2.6
2023-03-27T09:31:05.833Z,2.6
2023-03-27T09:32:17.632Z,2.6
2023-03-27T09:33:24.560Z,2.5
2023-03-27T09:34:31.337Z,2.4
2023-03-27T09:35:38.122Z,2.5
2023-03-27T09:36:44.960Z,2.5
2023-03-27T09:37:51.738Z,2.6
2023-03-27T09:38:58.705Z,2.5
2023-03-27T09:40:05.520Z,2.4
2023-03-27T09:41:12.428Z,2.6
2023-03-27T09:42:22.134Z,2.6
2023-03-27T09:43:33.954Z,2.5
2023-03-27T09:44:43.664Z,2.6
2023-03-27T09:45:50.490Z,2.7
2023-03-27T09:46:57.339Z,2.8
2023-03-27T09:48:09.233Z,2.9
2023-03-27T09:49:21.081Z,2.9
2023-03-27T09:50:28.019Z,2.6
2023-03-27T09:51:42.600Z,2.5
2023-03-27T09:52:52.233Z,2.3
2023-03-27T09:54:09.146Z,2.4
2023-03-27T09:55:15.961Z,2.4
2023-03-27T09:56:27.814Z,2.4
2023-03-27T09:57:34.650Z,2.4
2023-03-27T09:58:41.492Z,2.1
2023-03-27T09:59:48.271Z,2.3
2023-03-27T10:00:58.085Z,2.2
2023-03-27T10:02:09.814Z,2.3
2023-03-27T10:03:21.781Z,2.3
2023-03-27T10:04:28.499Z,2.3
2023-03-27T10:05:35.259Z,2.4
2023-03-27T10:06:42.048Z,2.2
2023-03-27T10:07:53.911Z,2.3
2023-03-27T10:09:00.681Z,2.3
2023-03-27T10:10:17.714Z,2.1
2023-03-27T10:11:24.433Z,2.1
2023-03-27T10:12:31.203Z,2.3
2023-03-27T10:13:37.983Z,2.2
2023-03-27T10:14:47.646Z,2.3
2023-03-27T10:15:54.436Z,2.4
2023-03-27T10:17:01.266Z,2.3
2023-03-27T10:18:08.054Z,2.1
2023-03-27T10:19:24.856Z,2.1
2023-03-27T10:20:31.938Z,2.2
2023-03-27T10:21:38.832Z,2.3
2023-03-27T10:22:45.568Z,2.3
2023-03-27T10:23:55.109Z,2.2
2023-03-27T10:25:01.846Z,2.3
2023-03-27T10:26:13.871Z,2.3
2023-03-27T10:27:20.615Z,2.3
2023-03-27T10:28:27.356Z,2.4
2023-03-27T10:29:38.303Z,2.2
2023-03-27T10:30:43.486Z,2
2023-03-27T10:31:50.406Z,2.2
2023-03-27T10:32:57.140Z,1.9
2023-03-27T10:34:03.972Z,2.1
2023-03-27T10:35:10.783Z,2.3
2023-03-27T10:36:27.719Z,2.3
2023-03-27T10:37:34.546Z,2.3
2023-03-27T10:38:41.290Z,2.2
2023-03-27T10:39:48.076Z,2.2
2023-03-27T10:40:55.132Z,2.4
2023-03-27T10:42:01.755Z,2.3
2023-03-27T10:43:09.683Z,2.4
2023-03-27T10:44:15.433Z,2.2
2023-03-27T10:45:22.220Z,2
2023-03-27T10:46:29.053Z,2
2023-03-27T10:47:35.875Z,2.1
2023-03-27T10:48:42.567Z,2.1
2023-03-27T10:49:52.223Z,2.2
2023-03-27T10:51:04.156Z,1.9
2023-03-27T10:52:10.959Z,1.9
2023-03-27T10:53:22.848Z,2
2023-03-27T10:54:32.779Z,2.1
2023-03-27T10:55:44.770Z,2.1
2023-03-27T10:56:54.402Z,2.2
2023-03-27T10:58:06.312Z,2
2023-03-27T10:59:25.591Z,2.2
2023-03-27T11:00:30.868Z,2.2
2023-03-27T11:01:37.712Z,2.2
2023-03-27T11:02:44.539Z,2
2023-03-27T11:03:54.385Z,2.3
2023-03-27T11:05:06.235Z,2.3
2023-03-27T11:06:13.018Z,2.3
2023-03-27T11:07:19.906Z,2.3
2023-03-27T11:08:26.697Z,2.4
2023-03-27T11:09:39.225Z,2.4
2023-03-27T11:10:46.083Z,2.3
2023-03-27T11:11:52.891Z,2.2
2023-03-27T11:13:02.184Z,2.2
2023-03-27T11:14:11.674Z,2.2
2023-03-27T11:15:23.593Z,2.3
2023-03-27T11:16:33.270Z,2.3
2023-03-27T11:17:43.069Z,2.2
2023-03-27T11:18:52.542Z,2.2
2023-03-27T11:20:09.399Z,2.2
2023-03-27T11:21:21.311Z,2.2
2023-03-27T11:22:38.225Z,2.2
2023-03-27T11:23:45.003Z,2.1
2023-03-27T11:24:56.958Z,2.1
2023-03-27T11:26:03.849Z,2.1
2023-03-27T11:27:11.395Z,2.1
2023-03-27T11:28:17.359Z,2.5
2023-03-27T11:29:34.289Z,2.4
2023-03-27T11:30:46.212Z,2.3
2023-03-27T11:31:53.136Z,2.3
2023-03-27T11:32:59.935Z,2.4
2023-03-27T11:34:29.196Z,2.4
2023-03-27T11:35:31.465Z,2.5
2023-03-27T11:36:38.244Z,2.5
2023-03-27T11:37:53.004Z,2.4
2023-03-27T11:38:59.805Z,2.6
2023-03-27T11:40:16.707Z,2.8
2023-03-27T11:41:28.573Z,2.7
2023-03-27T11:42:35.349Z,2.8
2023-03-27T11:43:42.207Z,2.8
2023-03-27T11:44:49.028Z,2.7
2023-03-27T11:45:55.939Z,2.7
2023-03-27T11:47:02.677Z,2.7
2023-03-27T11:48:14.546Z,2.7
2023-03-27T11:49:31.485Z,2.4
2023-03-27T11:50:48.379Z,2.5
2023-03-27T11:52:05.334Z,2.6
2023-03-27T11:53:14.922Z,2.4
2023-03-27T11:54:24.613Z,2.6
2023-03-27T11:55:36.478Z,2.6
2023-03-27T11:56:53.562Z,2.7
2023-03-27T11:58:00.318Z,2.9
2023-03-27T11:59:17.297Z,2.8
2023-03-27T12:00:34.317Z,2.5
2023-03-27T12:01:43.786Z,2.5
2023-03-27T12:02:50.765Z,2.5
2023-03-27T12:04:00.236Z,2.6
2023-03-27T12:05:15.082Z,2.6
2023-03-27T12:06:26.932Z,2.8
2023-03-27T12:07:40.539Z,2.8
2023-03-27T12:08:46.134Z,2.8
2023-03-27T12:09:55.370Z,2.8
2023-03-27T12:11:12.379Z,2.9
2023-03-27T12:12:19.184Z,2.7
2023-03-27T12:13:41.491Z,2.7
2023-03-27T12:14:53.051Z,2.9
2023-03-27T12:16:04.902Z,2.7
2023-03-27T12:17:16.924Z,2.9
2023-03-27T12:18:32.414Z,2.9
2023-03-27T12:19:38.910Z,3.1
2023-03-27T12:20:53.497Z,3
2023-03-27T12:22:07.168Z,3.1
2023-03-27T12:23:20.655Z,3.1
2023-03-27T12:24:39.141Z,2.9
2023-03-27T12:25:52.323Z,2.9
2023-03-27T12:26:59.284Z,3
2023-03-27T12:28:07.273Z,3.2
2023-03-27T12:29:25.354Z,3.3
2023-03-27T12:30:32.170Z,3.1
2023-03-27T12:31:46.841Z,3
2023-03-27T12:33:03.856Z,2.9
2023-03-27T12:34:20.818Z,2.8
2023-03-27T12:35:33.633Z,2.9
2023-03-27T12:36:46.468Z,2.9
2023-03-27T12:38:01.359Z,2.7
2023-03-27T12:39:18.676Z,2.7
2023-03-27T12:40:25.624Z,2.9
2023-03-27T12:41:35.363Z,2.5
2023-03-27T12:42:43.756Z,2.6
2023-03-27T12:43:51.820Z,2.5
2023-03-27T12:45:01.248Z,2.6
2023-03-27T12:46:18.308Z,2.5
2023-03-27T12:47:27.952Z,2.6
2023-03-27T12:48:34.768Z,2.8
2023-03-27T12:49:51.672Z,2.9
2023-03-27T12:51:01.235Z,2.7
2023-03-27T12:52:07.996Z,2.8
2023-03-27T12:53:14.748Z,2.7
2023-03-27T12:54:29.621Z,2.6
2023-03-27T12:55:39.112Z,2.7
2023-03-27T12:56:45.899Z,2.6
2023-03-27T12:57:52.895Z,2.6
2023-03-27T12:58:59.611Z,2.6
2023-03-27T13:00:06.767Z,2.8
2023-03-27T13:01:23.629Z,2.6
2023-03-27T13:02:40.836Z,2.5
2023-03-27T13:03:55.558Z,2.6
2023-03-27T13:05:02.587Z,2.6
2023-03-27T13:06:19.154Z,2.4
2023-03-27T13:07:36.175Z,2.5
2023-03-27T13:08:50.552Z,2.4
2023-03-27T13:10:02.454Z,2.6
2023-03-27T13:11:09.209Z,2.8
2023-03-27T13:12:16.003Z,2.7
2023-03-27T13:13:30.715Z,2.6
2023-03-27T13:14:47.613Z,2.8
2023-03-27T13:16:04.577Z,2.7
2023-03-27T13:17:16.430Z,2.8
2023-03-27T13:18:28.288Z,2.8
2023-03-27T13:19:40.106Z,2.9
2023-03-27T13:20:51.972Z,2.8
2023-03-27T13:22:03.865Z,2.9
2023-03-27T13:23:15.751Z,2.8
2023-03-27T13:24:30.287Z,3.1
2023-03-27T13:25:47.699Z,3
2023-03-27T13:26:59.647Z,3.1
2023-03-27T13:28:09.079Z,3.1
2023-03-27T13:29:18.446Z,3.1
2023-03-27T13:30:25.268Z,3
2023-03-27T13:31:42.237Z,3.1
2023-03-27T13:32:49.040Z,3.1
2023-03-27T13:34:06.004Z,3
2023-03-27T13:35:20.434Z,3
2023-03-27T13:36:27.159Z,3.1
2023-03-27T13:37:36.601Z,3.2
2023-03-27T13:38:43.622Z,3
2023-03-27T13:39:55.435Z,3
2023-03-27T13:41:05.164Z,3.1
2023-03-27T13:42:22.076Z,3.1
2023-03-27T13:43:33.979Z,3.2
2023-03-27T13:44:40.763Z,3.2
2023-03-27T13:45:57.838Z,3.5
2023-03-27T13:47:04.887Z,3.4
2023-03-27T13:48:16.269Z,3.5
2023-03-27T13:49:28.194Z,3.2
2023-03-27T13:50:43.029Z,3.1
2023-03-27T13:51:59.948Z,3.2
2023-03-27T13:53:12.059Z,3.3
2023-03-27T13:54:28.975Z,3.4
2023-03-27T13:55:43.494Z,3.2
2023-03-27T13:56:50.288Z,3
2023-03-27T13:58:05.195Z,3
2023-03-27T13:59:17.505Z,3.1
2023-03-27T14:00:32.284Z,3.1
2023-03-27T14:01:47.009Z,3.1
2023-03-27T14:02:58.945Z,3.2
2023-03-27T14:04:15.629Z,3.1
2023-03-27T14:05:32.621Z,3.3
2023-03-27T14:06:47.307Z,3.4
2023-03-27T14:07:59.123Z,3.4
2023-03-27T14:09:13.961Z,3.5
2023-03-27T14:10:30.831Z,3.6
2023-03-27T14:11:40.496Z,3.7
2023-03-27T14:12:50.258Z,3.6
2023-03-27T14:14:02.140Z,3.7
2023-03-27T14:15:19.006Z,3.6
2023-03-27T14:16:36.011Z,3.6
2023-03-27T14:17:52.976Z,3.7
2023-03-27T14:19:09.923Z,3.6
2023-03-27T14:20:24.706Z,3.4
2023-03-27T14:21:38.659Z,3.3
2023-03-27T14:22:48.335Z,3.3
2023-03-27T14:24:00.307Z,3.2
2023-03-27T14:25:07.140Z,3.2
2023-03-27T14:26:19.077Z,3.2
2023-03-27T14:27:25.802Z,3.2
2023-03-27T14:28:32.713Z,3.1
2023-03-27T14:29:44.517Z,2.9
2023-03-27T14:31:04.176Z,2.8
2023-03-27T14:32:10.910Z,2.7
2023-03-27T14:33:17.834Z,2.7
2023-03-27T14:34:24.560Z,2.8
2023-03-27T14:35:31.326Z,2.9
2023-03-27T14:36:39.117Z,2.8
2023-03-27T14:37:47.753Z,2.8
2023-03-27T14:38:57.181Z,2.6
2023-03-27T14:40:03.986Z,2.7
2023-03-27T14:41:20.857Z,2.8
2023-03-27T14:42:29.224Z,3
2023-03-27T14:43:34.526Z,3
2023-03-27T14:44:41.257Z,2.9
2023-03-27T14:45:48.114Z,3
2023-03-27T14:46:54.978Z,3.1
2023-03-27T14:48:06.930Z,3.3
2023-03-27T14:49:24.711Z,3.5
2023-03-27T14:50:30.548Z,3.4
2023-03-27T14:51:37.482Z,3.4
2023-03-27T14:52:47.143Z,3.4
2023-03-27T14:53:54.004Z,3.5
2023-03-27T14:55:00.849Z,3.4
2023-03-27T14:56:07.803Z,3.3
2023-03-27T14:57:24.876Z,3.5
2023-03-27T14:58:31.669Z,3.4
2023-03-27T14:59:38.381Z,3.4
2023-03-27T15:00:45.267Z,3.4
2023-03-27T15:01:52.012Z,3.4
2023-03-27T15:02:58.784Z,3.4
2023-03-27T15:04:05.685Z,3.5
2023-03-27T15:05:12.462Z,3.5
2023-03-27T15:06:19.244Z,3.6
2023-03-27T15:07:26.048Z,3.2
2023-03-27T15:08:32.867Z,3.5
2023-03-27T15:09:39.767Z,3.6
2023-03-27T15:10:46.561Z,3.6
2023-03-27T15:11:53.331Z,3.6
2023-03-27T15:13:00.203Z,3.5
2023-03-27T15:14:06.989Z,3.6
2023-03-27T15:15:16.586Z,3.5
2023-03-27T15:16:26.231Z,3.5
2023-03-27T15:17:33.036Z,3.4
2023-03-27T15:18:39.835Z,3.3
2023-03-27T15:19:46.816Z,3.4
2023-03-27T15:20:53.540Z,3.4
2023-03-27T15:22:01.386Z,3.5
2023-03-27T15:23:07.247Z,3.6
2023-03-27T15:24:17.027Z,3.4
2023-03-27T15:25:28.916Z,3.4
2023-03-27T15:26:43.644Z,3.5
2023-03-27T15:27:50.455Z,3.6
2023-03-27T15:28:57.294Z,3.8
2023-03-27T15:30:04.154Z,3.7
2023-03-27T15:31:13.760Z,3.7
2023-03-27T15:32:20.550Z,3.7
2023-03-27T15:33:27.423Z,3.7
2023-03-27T15:34:34.382Z,3.8
2023-03-27T15:35:41.018Z,3.7
2023-03-27T15:36:47.846Z,3.6
2023-03-27T15:37:54.810Z,3.5
2023-03-27T15:39:01.573Z,3.6
2023-03-27T15:40:08.589Z,3.7
2023-03-27T15:41:21.325Z,3.8
2023-03-27T15:42:30.942Z,3.8
2023-03-27T15:43:47.935Z,3.8
2023-03-27T15:44:54.808Z,3.9
2023-03-27T15:46:02.053Z,4
2023-03-27T15:47:13.745Z,4
2023-03-27T15:48:25.726Z,4
2023-03-27T15:49:35.322Z,4
2023-03-27T15:50:42.178Z,4
2023-03-27T15:51:56.575Z,4.1
2023-03-27T15:53:03.378Z,4.1
2023-03-27T15:54:10.378Z,4
2023-03-27T15:55:27.350Z,4
2023-03-27T15:56:36.888Z,3.8